createdAt,value
2018-04-17T00:00:23.147Z,26.6
2018-04-17T00:01:12.067Z,26.6
2018-04-17T00:02:03.016Z,26.5
2018-04-17T00:02:52.500Z,26.5
2018-04-17T00:03:42.344Z,26.4
2018-04-17T00:04:32.582Z,26.4
2018-04-17T00:05:22.944Z,26.4
2018-04-17T00:06:11.660Z,26.4
2018-04-17T00:07:02.050Z,26.3
2018-04-17T00:07:52.065Z,26.3
2018-04-17T00:08:41.565Z,26.3
2018-04-17T00:09:32.214Z,26.2
2018-04-17T00:10:22.552Z,26.2
2018-04-17T00:11:12.702Z,26.2
2018-04-17T00:12:03.207Z,26.1
2018-04-17T00:12:52.836Z,26.1
2018-04-17T00:13:43.126Z,26.1
2018-04-17T00:14:32.651Z,26.1
2018-04-17T00:15:22.469Z,26
2018-04-17T00:16:13.199Z,26
2018-04-17T00:17:03.616Z,26
2018-04-17T00:17:53.646Z,25.9
2018-04-17T00:18:43.396Z,25.9
2018-04-17T00:19:34.063Z,25.9
2018-04-17T00:20:24.380Z,25.9
2018-04-17T00:21:14.456Z,25.8
2018-04-17T00:22:03.683Z,25.8
2018-04-17T00:22:53.810Z,25.8
2018-04-17T00:23:44.583Z,25.8
2018-04-17T00:24:34.373Z,25.7
2018-04-17T00:25:24.167Z,25.7
2018-04-17T00:26:15.124Z,25.7
2018-04-17T00:27:04.340Z,25.6
2018-04-17T00:27:54.035Z,25.6
2018-04-17T00:28:44.440Z,25.6
2018-04-17T00:29:34.787Z,25.6
2018-04-17T00:30:24.845Z,25.6
2018-04-17T00:31:13.998Z,25.5
2018-04-17T00:32:03.895Z,25.5
2018-04-17T00:32:54.246Z,25.4
2018-04-17T00:33:44.696Z,25.4
2018-04-17T00:34:34.675Z,25.4
2018-04-17T00:35:25.019Z,25.4
2018-04-17T00:36:14.839Z,25.4
2018-04-17T00:37:04.856Z,25.4
2018-04-17T00:37:55.701Z,25.3
2018-04-17T00:38:45.474Z,25.3
2018-04-17T00:39:34.954Z,25.3
2018-04-17T00:40:25.852Z,25.3
2018-04-17T00:41:15.669Z,25.3
2018-04-17T00:42:05.701Z,25.3
2018-04-17T00:42:54.930Z,25.2
2018-04-17T00:43:46.362Z,25.2
2018-04-17T00:44:35.598Z,25.2
2018-04-17T00:45:26.178Z,25.1
2018-04-17T00:46:16.327Z,25.1
2018-04-17T00:47:06.056Z,25.1
2018-04-17T00:47:56.119Z,25.1
2018-04-17T00:48:46.196Z,25.1
2018-04-17T00:49:36.827Z,25.1
2018-04-17T00:50:25.466Z,25.1
2018-04-17T00:51:16.131Z,25.1
2018-04-17T00:52:06.748Z,25
2018-04-17T00:52:56.330Z,25
2018-04-17T00:53:47.191Z,25
2018-04-17T00:54:35.255Z,25
2018-04-17T00:55:27.018Z,24.9
2018-04-17T00:56:16.752Z,24.9
2018-04-17T00:57:06.288Z,24.9
2018-04-17T00:57:56.365Z,24.9
2018-04-17T00:58:46.155Z,24.9
2018-04-17T00:59:37.036Z,24.9
2018-04-17T01:00:27.417Z,24.9
2018-04-17T01:01:17.432Z,24.8
2018-04-17T01:02:05.503Z,24.8
2018-04-17T01:02:56.687Z,24.8
2018-04-17T01:03:46.790Z,24.8
2018-04-17T01:04:36.550Z,24.8
2018-04-17T01:05:26.930Z,24.8
2018-04-17T01:06:17.329Z,24.8
2018-04-17T01:07:07.572Z,24.8
2018-04-17T01:07:57.315Z,24.8
2018-04-17T01:08:47.208Z,24.7
2018-04-17T01:09:37.817Z,24.7
2018-04-17T01:10:27.544Z,24.7
2018-04-17T01:11:18.473Z,24.7
2018-04-17T01:12:08.245Z,24.7
2018-04-17T01:12:58.551Z,24.7
2018-04-17T01:13:47.220Z,24.6
2018-04-17T01:14:38.472Z,24.6
2018-04-17T01:15:28.497Z,24.6
2018-04-17T01:16:18.044Z,24.6
2018-04-17T01:17:08.086Z,24.6
2018-04-17T01:17:58.114Z,24.6
2018-04-17T01:18:48.159Z,24.6
2018-04-17T01:19:38.518Z,24.6
2018-04-17T01:20:27.194Z,24.5
2018-04-17T01:21:18.115Z,24.5
2018-04-17T01:22:07.856Z,24.5
2018-04-17T01:22:59.074Z,24.5
2018-04-17T01:23:49.169Z,24.5
2018-04-17T01:24:39.243Z,24.5
2018-04-17T01:25:28.733Z,24.5
2018-04-17T01:26:18.788Z,24.4
2018-04-17T01:27:08.543Z,24.5
2018-04-17T01:27:59.728Z,24.4
2018-04-17T01:28:49.001Z,24.4
2018-04-17T01:29:39.306Z,24.4
2018-04-17T01:30:28.763Z,24.4
2018-04-17T01:31:17.494Z,24.4
2018-04-17T01:32:09.744Z,24.4
2018-04-17T01:32:59.611Z,24.4
2018-04-17T01:33:49.890Z,24.4
2018-04-17T01:34:40.150Z,24.4
2018-04-17T01:35:29.188Z,24.4
2018-04-17T01:36:19.240Z,24.4
2018-04-17T01:37:08.398Z,24.3
2018-04-17T01:37:59.110Z,24.3
2018-04-17T01:38:49.984Z,24.3
2018-04-17T01:39:39.235Z,24.3
2018-04-17T01:40:29.811Z,24.3
2018-04-17T01:41:19.866Z,24.3
2018-04-17T01:42:09.669Z,24.3
2018-04-17T01:43:00.331Z,24.3
2018-04-17T01:43:50.173Z,24.3
2018-04-17T01:44:40.384Z,24.3
2018-04-17T01:45:29.925Z,24.3
2018-04-17T01:46:19.391Z,24.3
2018-04-17T01:47:10.339Z,24.3
2018-04-17T01:48:00.728Z,24.3
2018-04-17T01:48:50.165Z,24.3
2018-04-17T01:49:40.569Z,24.3
2018-04-17T01:50:30.915Z,24.2
2018-04-17T01:51:20.644Z,24.3
2018-04-17T01:52:10.396Z,24.2
2018-04-17T01:53:00.787Z,24.2
2018-04-17T01:53:51.145Z,24.2
2018-04-17T01:54:41.449Z,24.2
2018-04-17T01:55:30.946Z,24.2
2018-04-17T01:56:21.385Z,24.2
2018-04-17T01:57:10.775Z,24.2
2018-04-17T01:58:00.379Z,24.2
2018-04-17T01:58:50.433Z,24.2
2018-04-17T01:59:39.920Z,24.1
2018-04-17T02:00:30.903Z,24.1
2018-04-17T02:01:20.690Z,24.1
2018-04-17T02:02:10.379Z,24.1
2018-04-17T02:03:01.305Z,24.1
2018-04-17T02:03:51.408Z,24.1
2018-04-17T02:04:41.201Z,24.1
2018-04-17T02:05:31.488Z,24.1
2018-04-17T02:06:20.715Z,24.1
2018-04-17T02:07:10.796Z,24.1
2018-04-17T02:08:01.410Z,24.1
2018-04-17T02:08:50.835Z,24.1
2018-04-17T02:09:41.032Z,24.1
2018-04-17T02:10:30.761Z,24.1
2018-04-17T02:11:22.937Z,24.1
2018-04-17T02:12:12.617Z,24.1
2018-04-17T02:13:02.707Z,24.1
2018-04-17T02:13:52.310Z,24.1
2018-04-17T02:14:41.358Z,24.1
2018-04-17T02:15:32.763Z,24
2018-04-17T02:16:23.082Z,24.1
2018-04-17T02:17:12.408Z,24.1
2018-04-17T02:18:02.926Z,24
2018-04-17T02:18:52.801Z,24
2018-04-17T02:19:42.795Z,24
2018-04-17T02:20:32.818Z,24
2018-04-17T02:21:22.602Z,24
2018-04-17T02:22:12.807Z,24
2018-04-17T02:23:03.332Z,24
2018-04-17T02:23:53.081Z,24
2018-04-17T02:24:43.973Z,24
2018-04-17T02:25:33.200Z,23.9
2018-04-17T02:26:23.843Z,23.9
2018-04-17T02:27:13.329Z,23.9
2018-04-17T02:28:04.000Z,23.9
2018-04-17T02:28:54.027Z,23.9
2018-04-17T02:29:44.056Z,23.9
2018-04-17T02:30:33.641Z,23.9
2018-04-17T02:31:23.424Z,23.9
2018-04-17T02:32:13.489Z,23.9
2018-04-17T02:33:04.113Z,23.9
2018-04-17T02:33:53.380Z,23.9
2018-04-17T02:34:43.914Z,23.9
2018-04-17T02:35:33.712Z,23.9
2018-04-17T02:36:24.332Z,23.9
2018-04-17T02:37:13.894Z,23.9
2018-04-17T02:38:04.468Z,23.9
2018-04-17T02:38:54.592Z,23.9
2018-04-17T02:39:44.032Z,23.9
2018-04-17T02:40:34.117Z,23.9
2018-04-17T02:41:24.688Z,23.9
2018-04-17T02:42:14.504Z,23.9
2018-04-17T02:43:05.147Z,23.9
2018-04-17T02:43:54.598Z,23.9
2018-04-17T02:44:45.082Z,23.9
2018-04-17T02:45:34.223Z,23.9
2018-04-17T02:46:25.382Z,23.8
2018-04-17T02:47:15.107Z,23.9
2018-04-17T02:48:04.172Z,23.9
2018-04-17T02:48:54.696Z,23.9
2018-04-17T02:49:45.050Z,23.8
2018-04-17T02:50:34.851Z,23.8
2018-04-17T02:51:25.753Z,23.8
2018-04-17T02:52:15.780Z,23.8
2018-04-17T02:53:05.002Z,23.8
2018-04-17T02:53:55.900Z,23.8
2018-04-17T02:54:46.099Z,23.8
2018-04-17T02:55:36.310Z,23.8
2018-04-17T02:56:25.063Z,23.8
2018-04-17T02:57:15.592Z,23.8
2018-04-17T02:58:05.408Z,23.8
2018-04-17T02:58:54.920Z,23.8
2018-04-17T02:59:45.302Z,23.8
2018-04-17T03:00:36.142Z,23.8
2018-04-17T03:01:25.695Z,23.8
2018-04-17T03:02:15.188Z,23.8
2018-04-17T03:03:05.677Z,23.8
2018-04-17T03:03:55.390Z,23.8
2018-04-17T03:04:46.082Z,23.8
2018-04-17T03:05:36.339Z,23.8
2018-04-17T03:06:25.843Z,23.8
2018-04-17T03:07:16.120Z,23.8
2018-04-17T03:08:05.682Z,23.8
2018-04-17T03:08:55.733Z,23.8
2018-04-17T03:09:46.101Z,23.8
2018-04-17T03:10:36.436Z,23.8
2018-04-17T03:11:26.493Z,23.8
2018-04-17T03:12:15.667Z,23.8
2018-04-17T03:13:06.280Z,23.8
2018-04-17T03:13:56.618Z,23.8
2018-04-17T03:14:46.481Z,23.8
2018-04-17T03:15:36.800Z,23.7
2018-04-17T03:16:26.827Z,23.7
2018-04-17T03:17:17.159Z,23.8
2018-04-17T03:18:07.308Z,23.7
2018-04-17T03:18:57.737Z,23.8
2018-04-17T03:19:47.148Z,23.7
2018-04-17T03:20:36.295Z,23.7
2018-04-17T03:21:28.224Z,23.7
2018-04-17T03:22:17.737Z,23.7
2018-04-17T03:23:07.775Z,23.7
2018-04-17T03:23:57.946Z,23.7
2018-04-17T03:24:48.247Z,23.7
2018-04-17T03:25:38.142Z,23.7
2018-04-17T03:26:27.485Z,23.7
2018-04-17T03:27:18.210Z,23.7
2018-04-17T03:28:07.997Z,23.7
2018-04-17T03:28:57.990Z,23.7
2018-04-17T03:29:48.062Z,23.7
2018-04-17T03:30:37.805Z,23.7
2018-04-17T03:31:28.186Z,23.6
2018-04-17T03:32:17.748Z,23.6
2018-04-17T03:33:07.759Z,23.6
2018-04-17T03:33:58.184Z,23.6
2018-04-17T03:34:47.859Z,23.6
2018-04-17T03:35:39.301Z,23.6
2018-04-17T03:36:28.827Z,23.7
2018-04-17T03:37:19.238Z,23.6
2018-04-17T03:38:08.684Z,23.6
2018-04-17T03:38:59.043Z,23.6
2018-04-17T03:39:49.575Z,23.6
2018-04-17T03:41:37.610Z,23.6
2018-04-17T03:42:27.760Z,23.6
2018-04-17T03:43:17.401Z,23.6
2018-04-17T03:44:07.529Z,23.6
2018-04-17T03:44:58.460Z,23.6
2018-04-17T03:46:01.734Z,23.6
2018-04-17T03:46:38.076Z,23.6
2018-04-17T03:47:27.743Z,23.6
2018-04-17T03:48:18.596Z,23.6
2018-04-17T03:49:06.789Z,23.6
2018-04-17T03:49:58.046Z,23.6
2018-04-17T03:50:48.117Z,23.6
2018-04-17T03:51:52.538Z,23.6
2018-04-17T03:52:27.863Z,23.6
2018-04-17T03:53:18.819Z,23.6
2018-04-17T03:54:07.996Z,23.6
2018-04-17T03:55:12.621Z,23.6
2018-04-17T03:55:47.618Z,23.6
2018-04-17T03:56:39.237Z,23.6
2018-04-17T03:57:28.855Z,23.6
2018-04-17T03:58:17.638Z,23.6
2018-04-17T03:59:37.776Z,23.6
2018-04-17T03:59:58.886Z,23.6
2018-04-17T04:01:03.458Z,23.6
2018-04-17T04:02:28.200Z,23.6
2018-04-17T04:03:18.805Z,23.6
2018-04-17T04:04:07.383Z,23.6
2018-04-17T04:04:59.416Z,23.6
2018-04-17T04:05:49.295Z,23.6
2018-04-17T04:06:39.326Z,23.6
2018-04-17T04:07:29.312Z,23.6
2018-04-17T04:08:19.628Z,23.6
2018-04-17T04:09:08.947Z,23.5
2018-04-17T04:09:59.031Z,23.6
2018-04-17T04:10:49.362Z,23.5
2018-04-17T04:11:39.705Z,23.5
2018-04-17T04:12:44.686Z,23.6
2018-04-17T04:13:19.215Z,23.5
2018-04-17T04:14:24.533Z,23.6
2018-04-17T04:14:59.169Z,23.6
2018-04-17T04:15:48.977Z,23.6
2018-04-17T04:16:54.695Z,23.5
2018-04-17T04:17:44.668Z,23.5
2018-04-17T04:18:35.530Z,23.5
2018-04-17T04:19:24.334Z,23.5
2018-04-17T04:20:00.558Z,23.5
2018-04-17T04:20:49.811Z,23.5
2018-04-17T04:21:40.189Z,23.5
2018-04-17T04:22:45.104Z,23.5
2018-04-17T04:23:20.275Z,23.5
2018-04-17T04:24:26.645Z,23.5
2018-04-17T04:25:01.159Z,23.5
2018-04-17T04:26:05.724Z,23.5
2018-04-17T04:26:40.743Z,23.5
2018-04-17T04:27:31.670Z,23.5
2018-04-17T04:28:21.075Z,23.5
2018-04-17T04:29:10.593Z,23.5
2018-04-17T04:30:01.323Z,23.5
2018-04-17T04:30:50.968Z,23.5
2018-04-17T04:31:40.658Z,23.5
2018-04-17T04:32:30.675Z,23.5
2018-04-17T04:33:21.058Z,23.5
2018-04-17T04:34:10.493Z,23.4
2018-04-17T04:35:00.711Z,23.4
2018-04-17T04:35:51.273Z,23.5
2018-04-17T04:36:55.691Z,23.5
2018-04-17T04:37:31.557Z,23.5
2018-04-17T04:38:21.666Z,23.4
2018-04-17T04:39:11.026Z,23.4
2018-04-17T04:40:00.723Z,23.4
2018-04-17T04:40:51.222Z,23.5
2018-04-17T04:41:41.202Z,23.4
2018-04-17T04:42:30.967Z,23.4
2018-04-17T04:43:22.208Z,23.4
2018-04-17T04:44:27.295Z,23.4
2018-04-17T04:45:02.534Z,23.4
2018-04-17T04:45:51.805Z,23.4
2018-04-17T04:46:41.738Z,23.4
2018-04-17T04:47:31.527Z,23.4
2018-04-17T04:48:22.708Z,23.4
2018-04-17T04:49:10.025Z,23.4
2018-04-17T04:50:01.718Z,23.4
2018-04-17T04:51:07.270Z,23.4
2018-04-17T04:51:42.388Z,23.4
2018-04-17T04:52:32.507Z,23.4
2018-04-17T04:53:22.233Z,23.4
2018-04-17T04:54:12.590Z,23.4
2018-04-17T04:55:01.853Z,23.4
2018-04-17T04:56:06.561Z,23.4
2018-04-17T04:56:42.358Z,23.4
2018-04-17T04:57:33.115Z,23.3
2018-04-17T04:58:37.222Z,23.4
2018-04-17T04:59:11.397Z,23.3
2018-04-17T05:00:02.050Z,23.3
2018-04-17T05:00:52.014Z,23.3
2018-04-17T05:01:42.937Z,23.3
2018-04-17T05:02:32.826Z,23.3
2018-04-17T05:03:22.802Z,23.3
2018-04-17T05:04:13.342Z,23.3
2018-04-17T05:05:17.642Z,23.3
2018-04-17T05:05:53.755Z,23.3
2018-04-17T05:06:43.624Z,23.3
2018-04-17T05:07:33.408Z,23.3
2018-04-17T05:08:23.964Z,23.3
2018-04-17T05:09:13.935Z,23.3
2018-04-17T05:10:17.971Z,23.3
2018-04-17T05:10:53.447Z,23.3
2018-04-17T05:11:42.996Z,23.3
2018-04-17T05:12:32.954Z,23.3
2018-04-17T05:13:23.262Z,23.3
2018-04-17T05:14:14.134Z,23.3
2018-04-17T05:15:04.684Z,23.3
2018-04-17T05:15:54.293Z,23.2
2018-04-17T05:16:44.639Z,23.2
2018-04-17T05:17:48.801Z,23.2
2018-04-17T05:18:23.249Z,23.2
2018-04-17T05:19:14.169Z,23.2
2018-04-17T05:20:03.167Z,23.2
2018-04-17T05:20:54.967Z,23.2
2018-04-17T05:21:44.639Z,23.2
2018-04-17T05:22:34.931Z,23.1
2018-04-17T05:23:57.239Z,23.2
2018-04-17T05:24:14.604Z,23.2
2018-04-17T05:25:19.894Z,23.2
2018-04-17T05:25:55.468Z,23.1
2018-04-17T05:26:45.499Z,23.1
2018-04-17T05:27:34.521Z,23.1
2018-04-17T05:28:25.677Z,23.1
2018-04-17T05:29:14.949Z,23.1
2018-04-17T05:30:06.589Z,23.1
2018-04-17T05:30:55.893Z,23.1
2018-04-17T05:31:46.174Z,23.1
2018-04-17T05:32:35.124Z,23.1
2018-04-17T05:33:56.926Z,23.1
2018-04-17T05:34:15.789Z,23.1
2018-04-17T05:35:19.936Z,23.1
2018-04-17T05:35:56.020Z,23.1
2018-04-17T05:36:46.718Z,23.1
2018-04-17T05:37:36.578Z,23.1
2018-04-17T05:38:40.600Z,23.1
2018-04-17T05:39:16.276Z,23.1
2018-04-17T05:40:07.010Z,23
2018-04-17T05:40:56.631Z,23
2018-04-17T05:41:46.000Z,23
2018-04-17T05:42:36.538Z,23
2018-04-17T05:43:26.277Z,23
2018-04-17T05:44:16.585Z,23
2018-04-17T05:45:21.086Z,23
2018-04-17T05:45:56.996Z,23
2018-04-17T05:46:47.163Z,23
2018-04-17T05:47:37.943Z,23
2018-04-17T05:48:26.977Z,23
2018-04-17T05:49:31.617Z,23
2018-04-17T05:50:06.566Z,22.9
2018-04-17T05:50:57.308Z,22.9
2018-04-17T05:51:47.953Z,22.9
2018-04-17T05:52:37.528Z,22.9
2018-04-17T05:53:27.415Z,22.9
2018-04-17T05:54:17.965Z,22.9
2018-04-17T05:55:07.992Z,22.9
2018-04-17T05:56:12.642Z,22.9
2018-04-17T05:56:47.868Z,22.9
2018-04-17T05:57:37.962Z,22.9
2018-04-17T05:58:28.245Z,22.9
2018-04-17T05:59:32.436Z,22.9
2018-04-17T06:00:22.512Z,22.9
2018-04-17T06:00:57.915Z,22.9
2018-04-17T06:02:02.581Z,22.9
2018-04-17T06:02:37.995Z,22.9
2018-04-17T06:03:28.087Z,22.9
2018-04-17T06:04:17.608Z,22.9
2018-04-17T06:05:08.310Z,22.9
2018-04-17T06:06:13.087Z,22.9
2018-04-17T06:06:47.831Z,22.9
2018-04-17T06:07:38.141Z,22.9
2018-04-17T06:08:26.836Z,22.9
2018-04-17T06:09:18.687Z,22.9
2018-04-17T06:10:08.295Z,22.8
2018-04-17T06:10:58.475Z,22.8
2018-04-17T06:11:48.821Z,22.8
2018-04-17T06:12:52.926Z,22.8
2018-04-17T06:13:28.868Z,22.8
2018-04-17T06:14:18.925Z,22.8
2018-04-17T06:15:08.918Z,22.8
2018-04-17T06:15:57.994Z,22.8
2018-04-17T06:17:20.143Z,22.8
2018-04-17T06:17:38.539Z,22.8
2018-04-17T06:18:27.301Z,22.8
2018-04-17T06:19:18.793Z,22.8
2018-04-17T06:20:08.303Z,22.8
2018-04-17T06:20:58.768Z,22.8
2018-04-17T06:21:48.429Z,22.8
2018-04-17T06:22:39.359Z,22.8
2018-04-17T06:23:44.733Z,22.8
2018-04-17T06:24:19.676Z,22.8
2018-04-17T06:25:09.947Z,22.8
2018-04-17T06:25:59.406Z,22.8
2018-04-17T06:26:49.763Z,22.8
2018-04-17T06:27:39.442Z,22.8
2018-04-17T06:28:28.156Z,22.8
2018-04-17T06:29:18.905Z,22.8
2018-04-17T06:30:09.479Z,22.8
2018-04-17T06:31:14.315Z,22.8
2018-04-17T06:32:03.830Z,22.8
2018-04-17T06:32:39.563Z,22.8
2018-04-17T06:33:29.467Z,22.8
2018-04-17T06:34:20.209Z,22.8
2018-04-17T06:35:10.355Z,22.8
2018-04-17T06:36:00.162Z,22.8
2018-04-17T06:36:50.485Z,22.8
2018-04-17T06:37:40.665Z,22.8
2018-04-17T06:38:46.041Z,22.8
2018-04-17T06:39:20.592Z,22.7
2018-04-17T06:40:10.605Z,22.8
2018-04-17T06:41:00.944Z,22.7
2018-04-17T06:41:51.587Z,22.7
2018-04-17T06:42:40.177Z,22.7
2018-04-17T06:43:31.770Z,22.7
2018-04-17T06:44:21.909Z,22.7
2018-04-17T06:45:09.897Z,22.7
2018-04-17T06:46:01.472Z,22.7
2018-04-17T06:46:51.601Z,22.7
2018-04-17T06:47:57.754Z,22.7
2018-04-17T06:48:45.788Z,22.7
2018-04-17T06:49:22.939Z,22.7
2018-04-17T06:50:11.581Z,22.7
2018-04-17T06:51:01.366Z,22.7
2018-04-17T06:51:51.781Z,22.7
2018-04-17T06:52:42.447Z,22.7
2018-04-17T06:53:31.866Z,22.7
2018-04-17T06:54:21.603Z,22.7
2018-04-17T06:55:12.301Z,22.7
2018-04-17T06:56:01.093Z,22.7
2018-04-17T06:56:52.394Z,22.7
2018-04-17T06:58:14.338Z,22.7
2018-04-17T06:58:31.142Z,22.7
2018-04-17T06:59:22.646Z,22.7
2018-04-17T07:00:12.909Z,22.7
2018-04-17T07:01:17.636Z,22.7
2018-04-17T07:02:07.893Z,22.7
2018-04-17T07:02:42.268Z,22.7
2018-04-17T07:03:32.118Z,22.7
2018-04-17T07:04:22.524Z,22.7
2018-04-17T07:05:13.400Z,22.7
2018-04-17T07:06:03.460Z,22.7
2018-04-17T07:06:53.542Z,22.7
2018-04-17T07:07:43.901Z,22.7
2018-04-17T07:08:32.348Z,22.7
2018-04-17T07:09:23.605Z,22.7
2018-04-17T07:10:13.339Z,22.7
2018-04-17T07:11:02.854Z,22.7
2018-04-17T07:11:52.535Z,22.7
2018-04-17T07:12:44.403Z,22.7
2018-04-17T07:13:32.211Z,22.7
2018-04-17T07:14:23.063Z,22.7
2018-04-17T07:15:13.396Z,22.7
2018-04-17T07:16:03.776Z,22.7
2018-04-17T07:16:54.604Z,22.7
2018-04-17T07:17:42.898Z,22.7
2018-04-17T07:18:32.924Z,22.7
2018-04-17T07:19:23.833Z,22.7
2018-04-17T07:20:13.879Z,22.7
2018-04-17T07:21:04.226Z,22.7
2018-04-17T07:22:08.608Z,22.7
2018-04-17T07:22:44.381Z,22.7
2018-04-17T07:23:33.872Z,22.7
2018-04-17T07:24:23.599Z,22.7
2018-04-17T07:25:14.544Z,22.7
2018-04-17T07:26:04.553Z,22.7
2018-04-17T07:26:53.701Z,22.6
2018-04-17T07:27:43.839Z,22.7
2018-04-17T07:28:34.550Z,22.7
2018-04-17T07:29:53.961Z,22.7
2018-04-17T07:30:14.017Z,22.7
2018-04-17T07:31:04.751Z,22.7
2018-04-17T07:31:54.161Z,22.6
2018-04-17T07:32:44.976Z,22.6
2018-04-17T07:33:35.561Z,22.6
2018-04-17T07:34:39.326Z,22.6
2018-04-17T07:35:15.014Z,22.6
2018-04-17T07:36:04.523Z,22.6
2018-04-17T07:36:55.336Z,22.6
2018-04-17T07:37:44.955Z,22.6
2018-04-17T07:38:35.366Z,22.6
2018-04-17T07:39:25.365Z,22.6
2018-04-17T07:40:15.675Z,22.6
2018-04-17T07:41:05.993Z,22.6
2018-04-17T07:41:56.066Z,22.6
2018-04-17T07:42:45.781Z,22.6
2018-04-17T07:43:51.887Z,22.6
2018-04-17T07:44:26.269Z,22.6
2018-04-17T07:45:29.626Z,22.6
2018-04-17T07:46:06.117Z,22.6
2018-04-17T07:46:56.385Z,22.5
2018-04-17T07:47:45.714Z,22.6
2018-04-17T07:48:36.998Z,22.6
2018-04-17T07:49:40.815Z,22.5
2018-04-17T07:50:15.640Z,22.5
2018-04-17T07:51:05.726Z,22.5
2018-04-17T07:51:55.964Z,22.5
2018-04-17T07:52:47.308Z,22.5
2018-04-17T07:53:36.872Z,22.5
2018-04-17T07:54:26.609Z,22.5
2018-04-17T07:55:16.812Z,22.5
2018-04-17T07:56:07.451Z,22.5
2018-04-17T07:56:56.599Z,22.5
2018-04-17T07:57:47.290Z,22.5
2018-04-17T07:58:37.148Z,22.5
2018-04-17T07:59:27.099Z,22.5
2018-04-17T08:00:16.336Z,22.5
2018-04-17T08:01:06.991Z,22.5
2018-04-17T08:01:57.876Z,22.5
2018-04-17T08:02:47.376Z,22.5
2018-04-17T08:03:36.872Z,22.5
2018-04-17T08:04:26.846Z,22.5
2018-04-17T08:05:17.058Z,22.5
2018-04-17T08:06:07.551Z,22.5
2018-04-17T08:07:12.093Z,22.5
2018-04-17T08:07:47.768Z,22.5
2018-04-17T08:08:38.053Z,22.5
2018-04-17T08:09:26.805Z,22.5
2018-04-17T08:10:17.145Z,22.5
2018-04-17T08:11:07.207Z,22.5
2018-04-17T08:11:59.076Z,22.5
2018-04-17T08:12:47.550Z,22.4
2018-04-17T08:13:37.697Z,22.4
2018-04-17T08:14:27.230Z,22.4
2018-04-17T08:15:31.315Z,22.4
2018-04-17T08:16:22.307Z,22.4
2018-04-17T08:16:57.911Z,22.4
2018-04-17T08:17:49.004Z,22.4
2018-04-17T08:18:38.349Z,22.5
2018-04-17T08:19:28.267Z,22.4
2018-04-17T08:20:18.399Z,22.4
2018-04-17T08:21:09.160Z,22.4
2018-04-17T08:21:58.578Z,22.4
2018-04-17T08:22:48.097Z,22.4
2018-04-17T08:23:53.039Z,22.4
2018-04-17T08:24:29.337Z,22.4
2018-04-17T08:25:34.057Z,22.4
2018-04-17T08:26:09.172Z,22.4
2018-04-17T08:27:28.302Z,22.4
2018-04-17T08:27:49.265Z,22.4
2018-04-17T08:28:38.397Z,22.4
2018-04-17T08:29:44.142Z,22.4
2018-04-17T08:30:34.224Z,22.4
2018-04-17T08:31:08.182Z,22.4
2018-04-17T08:32:00.136Z,22.4
2018-04-17T08:32:49.466Z,22.4
2018-04-17T08:33:39.379Z,22.4
2018-04-17T08:34:29.575Z,22.4
2018-04-17T08:35:19.358Z,22.4
2018-04-17T08:36:09.199Z,22.4
2018-04-17T08:37:00.129Z,22.4
2018-04-17T08:37:49.874Z,22.4
2018-04-17T08:38:40.711Z,22.4
2018-04-17T08:39:30.074Z,22.4
2018-04-17T08:40:20.239Z,22.4
2018-04-17T08:41:10.069Z,22.4
2018-04-17T08:42:00.175Z,22.4
2018-04-17T08:42:50.798Z,22.4
2018-04-17T08:43:40.141Z,22.4
2018-04-17T08:44:30.883Z,22.4
2018-04-17T08:45:20.956Z,22.4
2018-04-17T08:46:11.398Z,22.4
2018-04-17T08:47:32.556Z,22.4
2018-04-17T08:47:50.805Z,22.4
2018-04-17T08:48:40.596Z,22.4
2018-04-17T08:49:29.991Z,22.4
2018-04-17T08:50:21.268Z,22.4
2018-04-17T08:51:10.767Z,22.4
2018-04-17T08:52:00.603Z,22.4
2018-04-17T08:52:50.700Z,22.4
2018-04-17T08:53:40.930Z,22.4
2018-04-17T08:54:32.337Z,22.4
2018-04-17T08:55:20.318Z,22.4
2018-04-17T08:56:11.104Z,22.4
2018-04-17T08:57:01.325Z,22.4
2018-04-17T08:57:51.473Z,22.4
2018-04-17T08:58:42.040Z,22.4
2018-04-17T08:59:47.094Z,22.4
2018-04-17T09:00:22.226Z,22.4
2018-04-17T09:01:26.992Z,22.4
2018-04-17T09:02:01.155Z,22.4
2018-04-17T09:03:21.227Z,22.4
2018-04-17T09:03:46.912Z,22.4
2018-04-17T09:04:35.999Z,22.4
2018-04-17T09:05:27.455Z,22.4
2018-04-17T09:06:48.504Z,22.4
2018-04-17T09:07:07.238Z,22.4
2018-04-17T09:07:56.291Z,22.3
2018-04-17T09:08:47.250Z,22.3
2018-04-17T09:09:36.900Z,22.4
2018-04-17T09:10:26.777Z,22.4
2018-04-17T09:11:17.806Z,22.3
2018-04-17T09:12:07.423Z,22.3
2018-04-17T09:12:55.677Z,22.3
2018-04-17T09:13:47.299Z,22.4
2018-04-17T09:14:36.818Z,22.3
2018-04-17T09:15:41.744Z,22.3
2018-04-17T09:16:17.189Z,22.3
2018-04-17T09:17:07.480Z,22.3
2018-04-17T09:17:57.440Z,22.4
2018-04-17T09:18:47.343Z,22.3
2018-04-17T09:19:38.284Z,22.4
2018-04-17T09:20:27.254Z,22.3
2018-04-17T09:21:16.669Z,22.4
2018-04-17T09:22:08.482Z,22.4
2018-04-17T09:23:26.476Z,22.3
2018-04-17T09:24:03.432Z,22.3
2018-04-17T09:24:36.289Z,22.4
2018-04-17T09:25:42.126Z,22.4
2018-04-17T09:26:18.416Z,22.3
2018-04-17T09:27:07.267Z,22.3
2018-04-17T09:27:58.086Z,22.4
2018-04-17T09:28:48.668Z,22.4
2018-04-17T09:29:39.208Z,22.4
2018-04-17T09:30:43.483Z,22.4
2018-04-17T09:31:18.278Z,22.3
2018-04-17T09:32:09.243Z,22.3
2018-04-17T09:32:59.356Z,22.3
2018-04-17T09:33:49.085Z,22.4
2018-04-17T09:34:53.798Z,22.4
2018-04-17T09:35:28.635Z,22.3
2018-04-17T09:36:19.695Z,22.3
2018-04-17T09:37:08.843Z,22.3
2018-04-17T09:37:59.565Z,22.4
2018-04-17T09:39:03.849Z,22.4
2018-04-17T09:39:38.378Z,22.4
2018-04-17T09:40:44.004Z,22.4
2018-04-17T09:41:19.726Z,22.4
2018-04-17T09:42:09.480Z,22.4
2018-04-17T09:42:59.605Z,22.4
2018-04-17T09:43:50.020Z,22.4
2018-04-17T09:44:40.047Z,22.4
2018-04-17T09:45:29.556Z,22.4
2018-04-17T09:46:19.435Z,22.4
2018-04-17T09:47:10.317Z,22.4
2018-04-17T09:47:59.566Z,22.3
2018-04-17T09:48:50.162Z,22.4
2018-04-17T09:49:40.071Z,22.4
2018-04-17T09:50:45.240Z,22.4
2018-04-17T09:51:20.358Z,22.4
2018-04-17T09:52:08.585Z,22.4
2018-04-17T09:53:00.841Z,22.4
2018-04-17T09:53:50.082Z,22.4
2018-04-17T09:54:40.359Z,22.4
2018-04-17T09:55:30.193Z,22.4
2018-04-17T09:56:20.103Z,22.4
2018-04-17T09:57:11.308Z,22.4
2018-04-17T09:58:15.075Z,22.4
2018-04-17T09:59:20.113Z,22.4
2018-04-17T09:59:40.518Z,22.4
2018-04-17T10:00:44.599Z,22.4
2018-04-17T10:01:20.066Z,22.4
2018-04-17T10:02:11.454Z,22.4
2018-04-17T10:03:00.868Z,22.4
2018-04-17T10:03:51.582Z,22.4
2018-04-17T10:04:41.251Z,22.4
2018-04-17T10:05:31.248Z,22.4
2018-04-17T10:06:20.825Z,22.4
2018-04-17T10:07:11.554Z,22.4
2018-04-17T10:08:01.897Z,22.4
2018-04-17T10:08:52.943Z,22.4
2018-04-17T10:10:10.521Z,22.4
2018-04-17T10:10:46.236Z,22.4
2018-04-17T10:11:22.086Z,22.4
2018-04-17T10:12:12.469Z,22.4
2018-04-17T10:13:02.093Z,22.4
2018-04-17T10:13:51.426Z,22.4
2018-04-17T10:14:41.896Z,22.4
2018-04-17T10:15:31.678Z,22.4
2018-04-17T10:16:21.797Z,22.4
2018-04-17T10:17:11.846Z,22.4
2018-04-17T10:18:17.660Z,22.4
2018-04-17T10:18:51.410Z,22.4
2018-04-17T10:19:41.372Z,22.4
2018-04-17T10:20:32.242Z,22.4
2018-04-17T10:21:22.522Z,22.4
2018-04-17T10:22:13.042Z,22.4
2018-04-17T10:23:02.127Z,22.4
2018-04-17T10:23:52.684Z,22.4
2018-04-17T10:24:42.784Z,22.4
2018-04-17T10:25:32.782Z,22.4
2018-04-17T10:26:23.064Z,22.4
2018-04-17T10:27:12.925Z,22.4
2018-04-17T10:28:18.114Z,22.4
2018-04-17T10:29:07.407Z,22.4
2018-04-17T10:29:43.301Z,22.4
2018-04-17T10:30:33.492Z,22.4
2018-04-17T10:31:37.094Z,22.4
2018-04-17T10:32:13.124Z,22.4
2018-04-17T10:33:18.189Z,22.4
2018-04-17T10:34:30.441Z,22.4
2018-04-17T10:35:21.259Z,22.4
2018-04-17T10:36:11.602Z,22.4
2018-04-17T10:37:01.155Z,22.4
2018-04-17T10:37:50.922Z,22.4
2018-04-17T10:38:41.804Z,22.4
2018-04-17T10:39:30.799Z,22.4
2018-04-17T10:40:21.715Z,22.4
2018-04-17T10:41:11.220Z,22.5
2018-04-17T10:42:01.539Z,22.4
2018-04-17T10:42:51.053Z,22.5
2018-04-17T10:43:41.366Z,22.4
2018-04-17T10:44:31.418Z,22.4
2018-04-17T10:45:19.789Z,22.4
2018-04-17T10:46:10.819Z,22.5
2018-04-17T10:47:01.446Z,22.5
2018-04-17T10:47:49.681Z,22.5
2018-04-17T10:48:40.078Z,22.5
2018-04-17T10:49:29.723Z,22.4
2018-04-17T10:50:21.124Z,22.5
2018-04-17T10:51:11.939Z,22.5
2018-04-17T10:52:02.546Z,22.5
2018-04-17T10:52:51.806Z,22.5
2018-04-17T10:53:42.741Z,22.5
2018-04-17T10:54:32.186Z,22.5
2018-04-17T10:55:22.686Z,22.5
2018-04-17T10:56:11.246Z,22.5
2018-04-17T10:57:02.419Z,22.5
2018-04-17T10:57:52.298Z,22.5
2018-04-17T10:58:43.098Z,22.5
2018-04-17T10:59:31.696Z,22.5
2018-04-17T11:00:22.933Z,22.5
2018-04-17T11:01:13.008Z,22.5
2018-04-17T11:02:02.715Z,22.5
2018-04-17T11:02:53.093Z,22.5
2018-04-17T11:03:42.887Z,22.5
2018-04-17T11:04:33.505Z,22.5
2018-04-17T11:05:23.132Z,22.5
2018-04-17T11:06:13.377Z,22.5
2018-04-17T11:07:03.365Z,22.5
2018-04-17T11:07:54.022Z,22.5
2018-04-17T11:08:42.970Z,22.6
2018-04-17T11:09:32.885Z,22.5
2018-04-17T11:10:23.931Z,22.5